sensor_id;sensor_type;location;lat;lon;timestamp;P1;durP1;ratioP1;P2;durP2;ratioP2
75021;SDS011;63583;49.976;20.182;2023-04-16T00:01:50;9.43;;;4.85;;
75021;SDS011;63583;49.976;20.182;2023-04-16T00:04:16;10.90;;;4.97;;
75021;SDS011;63583;49.976;20.182;2023-04-16T00:06:42;8.65;;;5.05;;
75021;SDS011;63583;49.976;20.182;2023-04-16T00:09:07;11.65;;;4.97;;
75021;SDS011;63583;49.976;20.182;2023-04-16T00:11:33;11.10;;;5.43;;
75021;SDS011;63583;49.976;20.182;2023-04-16T00:13:58;8.77;;;5.05;;
75021;SDS011;63583;49.976;20.182;2023-04-16T00:16:24;9.23;;;4.78;;
75021;SDS011;63583;49.976;20.182;2023-04-16T00:18:50;11.35;;;5.45;;
75021;SDS011;63583;49.976;20.182;2023-04-16T00:21:15;14.05;;;5.93;;
75021;SDS011;63583;49.976;20.182;2023-04-16T00:23:41;13.77;;;6.55;;
75021;SDS011;63583;49.976;20.182;2023-04-16T00:26:07;12.68;;;5.75;;
75021;SDS011;63583;49.976;20.182;2023-04-16T00:28:33;12.43;;;5.93;;
75021;SDS011;63583;49.976;20.182;2023-04-16T00:30:59;12.48;;;6.72;;
75021;SDS011;63583;49.976;20.182;2023-04-16T00:33:26;12.20;;;6.28;;
75021;SDS011;63583;49.976;20.182;2023-04-16T00:35:51;12.98;;;6.72;;
75021;SDS011;63583;49.976;20.182;2023-04-16T00:38:17;10.65;;;6.07;;
75021;SDS011;63583;49.976;20.182;2023-04-16T00:40:42;13.50;;;5.82;;
75021;SDS011;63583;49.976;20.182;2023-04-16T00:43:08;10.90;;;5.70;;
75021;SDS011;63583;49.976;20.182;2023-04-16T00:45:34;16.60;;;6.00;;
75021;SDS011;63583;49.976;20.182;2023-04-16T00:48:00;10.15;;;5.13;;
75021;SDS011;63583;49.976;20.182;2023-04-16T00:50:26;13.15;;;5.63;;
75021;SDS011;63583;49.976;20.182;2023-04-16T00:52:52;11.05;;;5.18;;
75021;SDS011;63583;49.976;20.182;2023-04-16T00:55:17;12.82;;;5.60;;
75021;SDS011;63583;49.976;20.182;2023-04-16T00:57:44;10.18;;;5.35;;
75021;SDS011;63583;49.976;20.182;2023-04-16T01:00:10;8.98;;;5.22;;
75021;SDS011;63583;49.976;20.182;2023-04-16T01:02:36;12.90;;;5.18;;
75021;SDS011;63583;49.976;20.182;2023-04-16T01:05:03;7.85;;;4.35;;
75021;SDS011;63583;49.976;20.182;2023-04-16T01:07:29;10.32;;;4.88;;
75021;SDS011;63583;49.976;20.182;2023-04-16T01:09:55;9.35;;;4.75;;
75021;SDS011;63583;49.976;20.182;2023-04-16T01:12:21;9.10;;;4.75;;
75021;SDS011;63583;49.976;20.182;2023-04-16T01:14:47;12.07;;;4.80;;
75021;SDS011;63583;49.976;20.182;2023-04-16T01:17:13;9.52;;;4.95;;
75021;SDS011;63583;49.976;20.182;2023-04-16T01:19:38;8.93;;;4.15;;
75021;SDS011;63583;49.976;20.182;2023-04-16T01:22:04;9.55;;;3.63;;
75021;SDS011;63583;49.976;20.182;2023-04-16T01:24:30;8.38;;;3.65;;
75021;SDS011;63583;49.976;20.182;2023-04-16T01:26:56;7.32;;;3.72;;
75021;SDS011;63583;49.976;20.182;2023-04-16T01:29:23;6.70;;;3.97;;
75021;SDS011;63583;49.976;20.182;2023-04-16T01:31:49;7.82;;;3.60;;
75021;SDS011;63583;49.976;20.182;2023-04-16T01:34:14;8.48;;;3.75;;
75021;SDS011;63583;49.976;20.182;2023-04-16T01:36:40;8.05;;;3.97;;
75021;SDS011;63583;49.976;20.182;2023-04-16T01:39:06;8.75;;;3.75;;
75021;SDS011;63583;49.976;20.182;2023-04-16T01:41:31;6.97;;;3.85;;
75021;SDS011;63583;49.976;20.182;2023-04-16T01:43:57;6.25;;;3.83;;
75021;SDS011;63583;49.976;20.182;2023-04-16T01:46:25;6.45;;;3.13;;
75021;SDS011;63583;49.976;20.182;2023-04-16T01:51:19;5.95;;;2.97;;
75021;SDS011;63583;49.976;20.182;2023-04-16T01:53:45;6.68;;;3.33;;
75021;SDS011;63583;49.976;20.182;2023-04-16T01:56:11;6.88;;;3.33;;
75021;SDS011;63583;49.976;20.182;2023-04-16T01:58:36;7.57;;;3.22;;
75021;SDS011;63583;49.976;20.182;2023-04-16T02:01:03;6.65;;;3.35;;
75021;SDS011;63583;49.976;20.182;2023-04-16T02:03:30;8.45;;;3.20;;
75021;SDS011;63583;49.976;20.182;2023-04-16T02:05:56;6.15;;;3.03;;
75021;SDS011;63583;49.976;20.182;2023-04-16T02:08:22;7.82;;;3.25;;
75021;SDS011;63583;49.976;20.182;2023-04-16T02:10:51;7.80;;;3.40;;
75021;SDS011;63583;49.976;20.182;2023-04-16T02:13:16;9.75;;;3.70;;
75021;SDS011;63583;49.976;20.182;2023-04-16T02:15:45;7.30;;;3.13;;
75021;SDS011;63583;49.976;20.182;2023-04-16T02:18:12;6.28;;;3.25;;
75021;SDS011;63583;49.976;20.182;2023-04-16T02:20:41;6.93;;;3.45;;
75021;SDS011;63583;49.976;20.182;2023-04-16T02:23:07;5.43;;;2.75;;
75021;SDS011;63583;49.976;20.182;2023-04-16T02:25:41;8.32;;;2.88;;
75021;SDS011;63583;49.976;20.182;2023-04-16T02:28:08;6.43;;;2.75;;
75021;SDS011;63583;49.976;20.182;2023-04-16T02:30:35;6.20;;;3.38;;
75021;SDS011;63583;49.976;20.182;2023-04-16T02:33:02;5.75;;;3.22;;
75021;SDS011;63583;49.976;20.182;2023-04-16T02:35:30;8.05;;;3.95;;
75021;SDS011;63583;49.976;20.182;2023-04-16T02:37:59;7.03;;;4.10;;
75021;SDS011;63583;49.976;20.182;2023-04-16T02:40:26;9.23;;;5.35;;
75021;SDS011;63583;49.976;20.182;2023-04-16T02:42:52;7.35;;;4.43;;
75021;SDS011;63583;49.976;20.182;2023-04-16T02:45:19;7.30;;;4.03;;
75021;SDS011;63583;49.976;20.182;2023-04-16T02:47:45;7.70;;;4.47;;
75021;SDS011;63583;49.976;20.182;2023-04-16T02:50:14;6.95;;;3.80;;
75021;SDS011;63583;49.976;20.182;2023-04-16T02:52:40;8.13;;;4.82;;
75021;SDS011;63583;49.976;20.182;2023-04-16T02:55:06;11.25;;;5.00;;
75021;SDS011;63583;49.976;20.182;2023-04-16T02:57:32;8.90;;;4.72;;
75021;SDS011;63583;49.976;20.182;2023-04-16T02:59:58;9.30;;;5.25;;
75021;SDS011;63583;49.976;20.182;2023-04-16T03:02:24;9.23;;;5.03;;
75021;SDS011;63583;49.976;20.182;2023-04-16T03:04:50;8.60;;;4.45;;
75021;SDS011;63583;49.976;20.182;2023-04-16T03:07:16;7.75;;;4.05;;
75021;SDS011;63583;49.976;20.182;2023-04-16T03:09:42;7.30;;;4.00;;
75021;SDS011;63583;49.976;20.182;2023-04-16T03:12:08;8.02;;;3.80;;
75021;SDS011;63583;49.976;20.182;2023-04-16T03:14:34;9.63;;;4.70;;
75021;SDS011;63583;49.976;20.182;2023-04-16T03:16:59;6.03;;;3.50;;
75021;SDS011;63583;49.976;20.182;2023-04-16T03:19:25;10.75;;;4.05;;
75021;SDS011;63583;49.976;20.182;2023-04-16T03:21:50;8.15;;;3.63;;
75021;SDS011;63583;49.976;20.182;2023-04-16T03:24:16;6.25;;;3.55;;
75021;SDS011;63583;49.976;20.182;2023-04-16T03:26:41;7.00;;;2.92;;
75021;SDS011;63583;49.976;20.182;2023-04-16T03:29:07;8.05;;;3.40;;
75021;SDS011;63583;49.976;20.182;2023-04-16T03:31:33;6.32;;;3.83;;
75021;SDS011;63583;49.976;20.182;2023-04-16T03:33:58;7.50;;;3.10;;
75021;SDS011;63583;49.976;20.182;2023-04-16T03:36:24;7.60;;;3.63;;
75021;SDS011;63583;49.976;20.182;2023-04-16T03:38:51;9.02;;;4.40;;
75021;SDS011;63583;49.976;20.182;2023-04-16T03:41:17;7.10;;;3.40;;
75021;SDS011;63583;49.976;20.182;2023-04-16T03:43:43;5.95;;;3.70;;
75021;SDS011;63583;49.976;20.182;2023-04-16T03:46:08;5.93;;;3.17;;
75021;SDS011;63583;49.976;20.182;2023-04-16T03:48:34;8.30;;;4.95;;
75021;SDS011;63583;49.976;20.182;2023-04-16T03:51:00;8.90;;;4.50;;
75021;SDS011;63583;49.976;20.182;2023-04-16T03:53:27;8.35;;;4.22;;
75021;SDS011;63583;49.976;20.182;2023-04-16T03:55:52;7.15;;;3.83;;
75021;SDS011;63583;49.976;20.182;2023-04-16T03:58:19;6.13;;;3.10;;
75021;SDS011;63583;49.976;20.182;2023-04-16T04:00:44;6.38;;;3.17;;
75021;SDS011;63583;49.976;20.182;2023-04-16T04:03:10;6.13;;;2.50;;
75021;SDS011;63583;49.976;20.182;2023-04-16T04:05:37;5.28;;;2.88;;
75021;SDS011;63583;49.976;20.182;2023-04-16T04:08:04;5.30;;;3.08;;
75021;SDS011;63583;49.976;20.182;2023-04-16T04:10:32;5.80;;;2.83;;
75021;SDS011;63583;49.976;20.182;2023-04-16T04:13:00;6.22;;;3.08;;
75021;SDS011;63583;49.976;20.182;2023-04-16T04:15:26;4.07;;;2.85;;
75021;SDS011;63583;49.976;20.182;2023-04-16T04:17:52;5.38;;;2.92;;
75021;SDS011;63583;49.976;20.182;2023-04-16T04:20:17;5.07;;;2.60;;
75021;SDS011;63583;49.976;20.182;2023-04-16T04:22:43;6.80;;;2.70;;
75021;SDS011;63583;49.976;20.182;2023-04-16T04:25:09;5.10;;;2.53;;
75021;SDS011;63583;49.976;20.182;2023-04-16T04:27:35;5.32;;;2.80;;
75021;SDS011;63583;49.976;20.182;2023-04-16T04:30:01;6.82;;;3.45;;
75021;SDS011;63583;49.976;20.182;2023-04-16T04:32:28;6.25;;;2.80;;
75021;SDS011;63583;49.976;20.182;2023-04-16T04:34:55;6.97;;;3.25;;
75021;SDS011;63583;49.976;20.182;2023-04-16T04:37:21;7.57;;;3.72;;
75021;SDS011;63583;49.976;20.182;2023-04-16T04:39:46;6.00;;;3.70;;
75021;SDS011;63583;49.976;20.182;2023-04-16T04:42:12;6.63;;;3.45;;
75021;SDS011;63583;49.976;20.182;2023-04-16T04:44:37;8.23;;;3.75;;
75021;SDS011;63583;49.976;20.182;2023-04-16T04:47:03;8.00;;;3.20;;
75021;SDS011;63583;49.976;20.182;2023-04-16T04:49:29;4.57;;;2.63;;
75021;SDS011;63583;49.976;20.182;2023-04-16T04:51:55;4.63;;;2.58;;
75021;SDS011;63583;49.976;20.182;2023-04-16T04:54:20;5.30;;;2.83;;
75021;SDS011;63583;49.976;20.182;2023-04-16T04:56:46;4.57;;;2.42;;
75021;SDS011;63583;49.976;20.182;2023-04-16T04:59:11;5.22;;;2.95;;
75021;SDS011;63583;49.976;20.182;2023-04-16T05:01:37;4.05;;;2.42;;
75021;SDS011;63583;49.976;20.182;2023-04-16T05:04:03;5.88;;;2.92;;
75021;SDS011;63583;49.976;20.182;2023-04-16T05:06:29;4.55;;;2.42;;
75021;SDS011;63583;49.976;20.182;2023-04-16T05:08:55;4.38;;;2.45;;
75021;SDS011;63583;49.976;20.182;2023-04-16T05:11:21;6.13;;;3.05;;
75021;SDS011;63583;49.976;20.182;2023-04-16T05:13:46;6.75;;;3.25;;
75021;SDS011;63583;49.976;20.182;2023-04-16T05:16:12;4.25;;;2.58;;
75021;SDS011;63583;49.976;20.182;2023-04-16T05:18:37;3.90;;;2.45;;
75021;SDS011;63583;49.976;20.182;2023-04-16T05:21:03;6.68;;;2.92;;
75021;SDS011;63583;49.976;20.182;2023-04-16T05:23:29;5.60;;;2.85;;
75021;SDS011;63583;49.976;20.182;2023-04-16T05:25:55;5.15;;;2.33;;
75021;SDS011;63583;49.976;20.182;2023-04-16T05:28:20;6.72;;;3.00;;
75021;SDS011;63583;49.976;20.182;2023-04-16T05:30:46;7.82;;;3.47;;
75021;SDS011;63583;49.976;20.182;2023-04-16T05:33:11;5.03;;;2.80;;
75021;SDS011;63583;49.976;20.182;2023-04-16T05:35:37;5.00;;;2.72;;
75021;SDS011;63583;49.976;20.182;2023-04-16T05:38:03;5.55;;;3.03;;
75021;SDS011;63583;49.976;20.182;2023-04-16T05:40:28;6.32;;;3.30;;
75021;SDS011;63583;49.976;20.182;2023-04-16T05:42:54;6.65;;;3.20;;
75021;SDS011;63583;49.976;20.182;2023-04-16T05:45:20;5.53;;;2.55;;
75021;SDS011;63583;49.976;20.182;2023-04-16T05:47:45;3.97;;;2.63;;
75021;SDS011;63583;49.976;20.182;2023-04-16T05:50:11;6.38;;;3.28;;
75021;SDS011;63583;49.976;20.182;2023-04-16T05:52:37;5.38;;;3.20;;
75021;SDS011;63583;49.976;20.182;2023-04-16T05:55:03;5.90;;;2.97;;
75021;SDS011;63583;49.976;20.182;2023-04-16T05:57:29;6.38;;;3.15;;
75021;SDS011;63583;49.976;20.182;2023-04-16T05:59:55;6.45;;;3.42;;
75021;SDS011;63583;49.976;20.182;2023-04-16T06:02:20;5.20;;;2.63;;
75021;SDS011;63583;49.976;20.182;2023-04-16T06:04:46;4.57;;;2.83;;
75021;SDS011;63583;49.976;20.182;2023-04-16T06:07:11;5.40;;;3.03;;
75021;SDS011;63583;49.976;20.182;2023-04-16T06:09:37;3.55;;;2.17;;
75021;SDS011;63583;49.976;20.182;2023-04-16T06:12:03;4.80;;;2.78;;
75021;SDS011;63583;49.976;20.182;2023-04-16T06:14:29;5.85;;;3.20;;
75021;SDS011;63583;49.976;20.182;2023-04-16T06:16:54;4.30;;;2.22;;
75021;SDS011;63583;49.976;20.182;2023-04-16T06:19:20;4.78;;;2.58;;
75021;SDS011;63583;49.976;20.182;2023-04-16T06:21:46;6.53;;;2.85;;
75021;SDS011;63583;49.976;20.182;2023-04-16T06:24:12;4.75;;;2.72;;
75021;SDS011;63583;49.976;20.182;2023-04-16T06:26:37;3.70;;;2.40;;
75021;SDS011;63583;49.976;20.182;2023-04-16T06:29:03;5.40;;;2.83;;
75021;SDS011;63583;49.976;20.182;2023-04-16T06:31:29;6.15;;;2.90;;
75021;SDS011;63583;49.976;20.182;2023-04-16T06:33:55;4.93;;;2.72;;
75021;SDS011;63583;49.976;20.182;2023-04-16T06:36:21;4.93;;;2.78;;
75021;SDS011;63583;49.976;20.182;2023-04-16T06:38:47;3.83;;;2.47;;
75021;SDS011;63583;49.976;20.182;2023-04-16T06:41:13;5.70;;;2.78;;
75021;SDS011;63583;49.976;20.182;2023-04-16T06:43:39;6.60;;;3.15;;
75021;SDS011;63583;49.976;20.182;2023-04-16T06:46:05;7.57;;;3.63;;
75021;SDS011;63583;49.976;20.182;2023-04-16T06:48:30;5.75;;;2.88;;
75021;SDS011;63583;49.976;20.182;2023-04-16T06:50:56;6.63;;;3.42;;
75021;SDS011;63583;49.976;20.182;2023-04-16T06:53:22;5.60;;;3.20;;
75021;SDS011;63583;49.976;20.182;2023-04-16T06:55:48;6.70;;;3.05;;
75021;SDS011;63583;49.976;20.182;2023-04-16T06:58:13;8.48;;;4.18;;
75021;SDS011;63583;49.976;20.182;2023-04-16T07:00:39;5.88;;;3.80;;
75021;SDS011;63583;49.976;20.182;2023-04-16T07:03:05;5.22;;;3.30;;
75021;SDS011;63583;49.976;20.182;2023-04-16T07:05:30;7.65;;;3.63;;
75021;SDS011;63583;49.976;20.182;2023-04-16T07:07:57;6.82;;;3.70;;
75021;SDS011;63583;49.976;20.182;2023-04-16T07:10:23;4.85;;;2.85;;
75021;SDS011;63583;49.976;20.182;2023-04-16T07:12:49;4.18;;;2.75;;
75021;SDS011;63583;49.976;20.182;2023-04-16T07:15:15;5.38;;;2.50;;
75021;SDS011;63583;49.976;20.182;2023-04-16T07:17:41;7.10;;;3.03;;
75021;SDS011;63583;49.976;20.182;2023-04-16T07:20:07;4.15;;;2.70;;
75021;SDS011;63583;49.976;20.182;2023-04-16T07:22:33;4.07;;;2.10;;
75021;SDS011;63583;49.976;20.182;2023-04-16T07:24:58;4.88;;;2.00;;
75021;SDS011;63583;49.976;20.182;2023-04-16T07:27:24;4.40;;;2.30;;
75021;SDS011;63583;49.976;20.182;2023-04-16T07:29:50;3.33;;;2.10;;
75021;SDS011;63583;49.976;20.182;2023-04-16T07:32:15;4.22;;;2.55;;
75021;SDS011;63583;49.976;20.182;2023-04-16T07:34:41;4.10;;;2.20;;
75021;SDS011;63583;49.976;20.182;2023-04-16T07:37:07;3.45;;;1.77;;
75021;SDS011;63583;49.976;20.182;2023-04-16T07:39:33;3.92;;;2.35;;
75021;SDS011;63583;49.976;20.182;2023-04-16T07:41:58;4.63;;;2.40;;
75021;SDS011;63583;49.976;20.182;2023-04-16T07:44:24;3.03;;;2.00;;
75021;SDS011;63583;49.976;20.182;2023-04-16T07:46:51;3.03;;;1.73;;
75021;SDS011;63583;49.976;20.182;2023-04-16T07:49:16;2.95;;;1.70;;
75021;SDS011;63583;49.976;20.182;2023-04-16T07:51:42;4.03;;;2.05;;
75021;SDS011;63583;49.976;20.182;2023-04-16T07:54:08;3.63;;;1.80;;
75021;SDS011;63583;49.976;20.182;2023-04-16T07:56:35;4.32;;;1.63;;
75021;SDS011;63583;49.976;20.182;2023-04-16T07:59:00;3.40;;;1.58;;
75021;SDS011;63583;49.976;20.182;2023-04-16T08:01:26;4.63;;;2.47;;
75021;SDS011;63583;49.976;20.182;2023-04-16T08:03:51;5.05;;;2.65;;
75021;SDS011;63583;49.976;20.182;2023-04-16T08:06:17;3.50;;;2.05;;
75021;SDS011;63583;49.976;20.182;2023-04-16T08:08:43;4.13;;;2.05;;
75021;SDS011;63583;49.976;20.182;2023-04-16T08:11:08;3.75;;;1.88;;
75021;SDS011;63583;49.976;20.182;2023-04-16T08:13:34;4.07;;;2.03;;
75021;SDS011;63583;49.976;20.182;2023-04-16T08:16:00;3.28;;;2.25;;
75021;SDS011;63583;49.976;20.182;2023-04-16T08:18:26;3.15;;;1.77;;
75021;SDS011;63583;49.976;20.182;2023-04-16T08:20:52;4.70;;;1.90;;
75021;SDS011;63583;49.976;20.182;2023-04-16T08:23:17;3.78;;;1.77;;
75021;SDS011;63583;49.976;20.182;2023-04-16T08:25:43;4.38;;;2.17;;
75021;SDS011;63583;49.976;20.182;2023-04-16T08:28:08;3.00;;;1.65;;
75021;SDS011;63583;49.976;20.182;2023-04-16T08:30:34;4.70;;;2.53;;
75021;SDS011;63583;49.976;20.182;2023-04-16T08:33:00;4.15;;;1.70;;
75021;SDS011;63583;49.976;20.182;2023-04-16T08:35:26;3.13;;;1.75;;
75021;SDS011;63583;49.976;20.182;2023-04-16T08:37:51;4.13;;;1.85;;
75021;SDS011;63583;49.976;20.182;2023-04-16T08:40:18;3.30;;;1.60;;
75021;SDS011;63583;49.976;20.182;2023-04-16T08:42:44;3.35;;;1.75;;
75021;SDS011;63583;49.976;20.182;2023-04-16T08:45:17;3.40;;;1.60;;
75021;SDS011;63583;49.976;20.182;2023-04-16T08:47:46;2.72;;;1.65;;
75021;SDS011;63583;49.976;20.182;2023-04-16T08:50:14;4.22;;;2.05;;
75021;SDS011;63583;49.976;20.182;2023-04-16T08:52:52;3.72;;;2.17;;
75021;SDS011;63583;49.976;20.182;2023-04-16T08:55:28;3.75;;;1.80;;
75021;SDS011;63583;49.976;20.182;2023-04-16T08:58:00;3.00;;;1.85;;
75021;SDS011;63583;49.976;20.182;2023-04-16T09:00:27;3.97;;;2.00;;
75021;SDS011;63583;49.976;20.182;2023-04-16T09:02:55;4.50;;;1.90;;
75021;SDS011;63583;49.976;20.182;2023-04-16T09:05:21;4.30;;;2.00;;
75021;SDS011;63583;49.976;20.182;2023-04-16T09:07:49;3.80;;;2.25;;
75021;SDS011;63583;49.976;20.182;2023-04-16T09:10:17;3.40;;;2.00;;
75021;SDS011;63583;49.976;20.182;2023-04-16T09:12:43;4.40;;;2.33;;
75021;SDS011;63583;49.976;20.182;2023-04-16T09:15:10;3.53;;;2.10;;
75021;SDS011;63583;49.976;20.182;2023-04-16T09:17:36;3.83;;;1.80;;
75021;SDS011;63583;49.976;20.182;2023-04-16T09:20:06;3.72;;;1.83;;
75021;SDS011;63583;49.976;20.182;2023-04-16T09:22:34;3.72;;;1.98;;
75021;SDS011;63583;49.976;20.182;2023-04-16T09:25:00;2.95;;;1.55;;
75021;SDS011;63583;49.976;20.182;2023-04-16T09:27:25;2.50;;;1.60;;
75021;SDS011;63583;49.976;20.182;2023-04-16T09:29:51;3.50;;;1.63;;
75021;SDS011;63583;49.976;20.182;2023-04-16T09:32:18;3.15;;;1.80;;
75021;SDS011;63583;49.976;20.182;2023-04-16T09:34:54;3.47;;;2.00;;
75021;SDS011;63583;49.976;20.182;2023-04-16T09:37:26;3.65;;;2.05;;
75021;SDS011;63583;49.976;20.182;2023-04-16T09:42:22;3.35;;;1.67;;
75021;SDS011;63583;49.976;20.182;2023-04-16T09:44:49;2.58;;;1.70;;
75021;SDS011;63583;49.976;20.182;2023-04-16T09:47:15;3.15;;;1.70;;
75021;SDS011;63583;49.976;20.182;2023-04-16T09:49:41;3.63;;;2.05;;
75021;SDS011;63583;49.976;20.182;2023-04-16T09:54:46;3.58;;;1.73;;
75021;SDS011;63583;49.976;20.182;2023-04-16T09:57:13;2.92;;;1.48;;
75021;SDS011;63583;49.976;20.182;2023-04-16T09:59:42;4.05;;;1.65;;
75021;SDS011;63583;49.976;20.182;2023-04-16T10:02:08;3.00;;;1.60;;
75021;SDS011;63583;49.976;20.182;2023-04-16T10:04:46;2.85;;;1.58;;
75021;SDS011;63583;49.976;20.182;2023-04-16T10:07:16;2.28;;;1.30;;
75021;SDS011;63583;49.976;20.182;2023-04-16T10:09:42;2.92;;;1.80;;
75021;SDS011;63583;49.976;20.182;2023-04-16T10:12:08;3.05;;;1.70;;
75021;SDS011;63583;49.976;20.182;2023-04-16T10:14:34;3.63;;;1.70;;
75021;SDS011;63583;49.976;20.182;2023-04-16T10:17:00;3.95;;;1.98;;
75021;SDS011;63583;49.976;20.182;2023-04-16T10:19:27;3.05;;;1.70;;
75021;SDS011;63583;49.976;20.182;2023-04-16T10:21:56;3.65;;;1.70;;
75021;SDS011;63583;49.976;20.182;2023-04-16T10:24:22;3.35;;;2.28;;
75021;SDS011;63583;49.976;20.182;2023-04-16T10:26:58;3.70;;;1.80;;
75021;SDS011;63583;49.976;20.182;2023-04-16T10:29:26;2.60;;;1.60;;
75021;SDS011;63583;49.976;20.182;2023-04-16T10:31:53;3.45;;;1.90;;
75021;SDS011;63583;49.976;20.182;2023-04-16T10:34:19;2.70;;;1.55;;
75021;SDS011;63583;49.976;20.182;2023-04-16T10:36:49;3.40;;;1.88;;
75021;SDS011;63583;49.976;20.182;2023-04-16T10:39:20;4.28;;;2.30;;
75021;SDS011;63583;49.976;20.182;2023-04-16T10:41:47;3.60;;;1.90;;
75021;SDS011;63583;49.976;20.182;2023-04-16T10:44:15;2.88;;;1.70;;
75021;SDS011;63583;49.976;20.182;2023-04-16T10:49:12;3.72;;;2.22;;
75021;SDS011;63583;49.976;20.182;2023-04-16T10:51:51;4.68;;;2.22;;
75021;SDS011;63583;49.976;20.182;2023-04-16T10:54:25;3.58;;;2.00;;
75021;SDS011;63583;49.976;20.182;2023-04-16T10:56:58;3.80;;;1.98;;
75021;SDS011;63583;49.976;20.182;2023-04-16T10:59:31;3.08;;;1.73;;
75021;SDS011;63583;49.976;20.182;2023-04-16T11:02:01;3.55;;;1.80;;
75021;SDS011;63583;49.976;20.182;2023-04-16T11:04:35;3.95;;;1.88;;
75021;SDS011;63583;49.976;20.182;2023-04-16T11:07:03;3.95;;;1.83;;
75021;SDS011;63583;49.976;20.182;2023-04-16T11:14:59;2.92;;;1.70;;
75021;SDS011;63583;49.976;20.182;2023-04-16T11:17:30;2.60;;;1.40;;
75021;SDS011;63583;49.976;20.182;2023-04-16T11:20:13;2.90;;;1.60;;
75021;SDS011;63583;49.976;20.182;2023-04-16T11:22:40;2.20;;;1.35;;
75021;SDS011;63583;49.976;20.182;2023-04-16T11:25:07;3.25;;;1.70;;
75021;SDS011;63583;49.976;20.182;2023-04-16T11:27:33;3.10;;;1.52;;
75021;SDS011;63583;49.976;20.182;2023-04-16T11:30:00;2.55;;;1.17;;
75021;SDS011;63583;49.976;20.182;2023-04-16T11:32:26;2.88;;;1.83;;
75021;SDS011;63583;49.976;20.182;2023-04-16T11:37:21;1.85;;;1.30;;
75021;SDS011;63583;49.976;20.182;2023-04-16T11:39:57;2.40;;;1.15;;
75021;SDS011;63583;49.976;20.182;2023-04-16T11:42:22;2.30;;;1.30;;
75021;SDS011;63583;49.976;20.182;2023-04-16T11:44:52;2.38;;;1.00;;
75021;SDS011;63583;49.976;20.182;2023-04-16T11:47:22;2.40;;;1.25;;
75021;SDS011;63583;49.976;20.182;2023-04-16T11:49:48;2.00;;;1.10;;
75021;SDS011;63583;49.976;20.182;2023-04-16T11:52:24;2.15;;;1.20;;
75021;SDS011;63583;49.976;20.182;2023-04-16T11:54:55;1.88;;;1.15;;
75021;SDS011;63583;49.976;20.182;2023-04-16T11:57:28;2.13;;;1.15;;
75021;SDS011;63583;49.976;20.182;2023-04-16T11:59:55;1.85;;;1.17;;
75021;SDS011;63583;49.976;20.182;2023-04-16T12:05:01;2.58;;;1.10;;
75021;SDS011;63583;49.976;20.182;2023-04-16T12:07:27;2.50;;;1.15;;
75021;SDS011;63583;49.976;20.182;2023-04-16T12:10:03;2.28;;;1.02;;
75021;SDS011;63583;49.976;20.182;2023-04-16T12:12:32;1.77;;;1.20;;
75021;SDS011;63583;49.976;20.182;2023-04-16T12:14:59;2.47;;;1.30;;
75021;SDS011;63583;49.976;20.182;2023-04-16T12:17:32;2.10;;;1.00;;
75021;SDS011;63583;49.976;20.182;2023-04-16T12:20:00;2.55;;;1.27;;
75021;SDS011;63583;49.976;20.182;2023-04-16T12:22:33;2.50;;;1.42;;
75021;SDS011;63583;49.976;20.182;2023-04-16T12:25:01;3.10;;;1.17;;
75021;SDS011;63583;49.976;20.182;2023-04-16T12:30:26;1.90;;;1.08;;
75021;SDS011;63583;49.976;20.182;2023-04-16T12:35:40;1.83;;;1.08;;
75021;SDS011;63583;49.976;20.182;2023-04-16T12:38:07;2.00;;;1.10;;
75021;SDS011;63583;49.976;20.182;2023-04-16T12:40:33;2.00;;;1.13;;
75021;SDS011;63583;49.976;20.182;2023-04-16T12:42:59;2.35;;;1.02;;
75021;SDS011;63583;49.976;20.182;2023-04-16T12:45:25;2.83;;;1.10;;
75021;SDS011;63583;49.976;20.182;2023-04-16T12:47:51;2.30;;;1.30;;
75021;SDS011;63583;49.976;20.182;2023-04-16T12:50:17;1.70;;;0.90;;
75021;SDS011;63583;49.976;20.182;2023-04-16T12:52:42;2.17;;;1.13;;
75021;SDS011;63583;49.976;20.182;2023-04-16T12:55:08;2.05;;;1.10;;
75021;SDS011;63583;49.976;20.182;2023-04-16T12:57:34;1.90;;;1.27;;
75021;SDS011;63583;49.976;20.182;2023-04-16T13:00:00;1.90;;;1.00;;
75021;SDS011;63583;49.976;20.182;2023-04-16T13:02:26;2.28;;;1.13;;
75021;SDS011;63583;49.976;20.182;2023-04-16T13:04:52;1.83;;;0.95;;
75021;SDS011;63583;49.976;20.182;2023-04-16T13:07:18;2.22;;;1.17;;
75021;SDS011;63583;49.976;20.182;2023-04-16T13:09:44;2.50;;;1.58;;
75021;SDS011;63583;49.976;20.182;2023-04-16T13:12:10;3.05;;;1.30;;
75021;SDS011;63583;49.976;20.182;2023-04-16T13:14:37;2.40;;;1.33;;
75021;SDS011;63583;49.976;20.182;2023-04-16T13:17:02;1.73;;;1.15;;
75021;SDS011;63583;49.976;20.182;2023-04-16T13:19:29;2.17;;;1.10;;
75021;SDS011;63583;49.976;20.182;2023-04-16T13:21:55;2.03;;;1.10;;
75021;SDS011;63583;49.976;20.182;2023-04-16T13:24:21;1.92;;;1.08;;
75021;SDS011;63583;49.976;20.182;2023-04-16T13:26:48;1.98;;;1.20;;
75021;SDS011;63583;49.976;20.182;2023-04-16T13:29:15;2.60;;;1.42;;
75021;SDS011;63583;49.976;20.182;2023-04-16T13:31:40;2.13;;;1.10;;
75021;SDS011;63583;49.976;20.182;2023-04-16T13:34:06;1.90;;;1.20;;
75021;SDS011;63583;49.976;20.182;2023-04-16T13:36:31;2.63;;;1.38;;
75021;SDS011;63583;49.976;20.182;2023-04-16T13:38:58;2.00;;;1.00;;
75021;SDS011;63583;49.976;20.182;2023-04-16T13:41:24;2.15;;;1.08;;
75021;SDS011;63583;49.976;20.182;2023-04-16T13:43:50;3.22;;;2.25;;
75021;SDS011;63583;49.976;20.182;2023-04-16T13:46:15;2.00;;;1.30;;
75021;SDS011;63583;49.976;20.182;2023-04-16T13:48:41;2.10;;;1.50;;
75021;SDS011;63583;49.976;20.182;2023-04-16T13:51:07;2.42;;;1.60;;
75021;SDS011;63583;49.976;20.182;2023-04-16T13:53:32;3.97;;;1.85;;
75021;SDS011;63583;49.976;20.182;2023-04-16T13:55:58;3.78;;;2.45;;
75021;SDS011;63583;49.976;20.182;2023-04-16T13:58:24;2.90;;;1.70;;
75021;SDS011;63583;49.976;20.182;2023-04-16T14:00:50;2.55;;;1.25;;
75021;SDS011;63583;49.976;20.182;2023-04-16T14:03:16;2.60;;;1.23;;
75021;SDS011;63583;49.976;20.182;2023-04-16T14:05:41;2.28;;;1.20;;
75021;SDS011;63583;49.976;20.182;2023-04-16T14:08:07;2.78;;;1.42;;
75021;SDS011;63583;49.976;20.182;2023-04-16T14:10:34;2.20;;;1.30;;
75021;SDS011;63583;49.976;20.182;2023-04-16T14:13:00;2.88;;;1.70;;
75021;SDS011;63583;49.976;20.182;2023-04-16T14:15:25;2.47;;;1.20;;
75021;SDS011;63583;49.976;20.182;2023-04-16T14:17:54;2.92;;;1.35;;
75021;SDS011;63583;49.976;20.182;2023-04-16T14:20:20;2.85;;;1.80;;
75021;SDS011;63583;49.976;20.182;2023-04-16T14:22:45;3.05;;;1.80;;
75021;SDS011;63583;49.976;20.182;2023-04-16T14:25:11;3.67;;;1.90;;
75021;SDS011;63583;49.976;20.182;2023-04-16T14:27:37;4.38;;;2.00;;
75021;SDS011;63583;49.976;20.182;2023-04-16T14:30:03;3.00;;;1.70;;
75021;SDS011;63583;49.976;20.182;2023-04-16T14:32:30;3.55;;;1.75;;
75021;SDS011;63583;49.976;20.182;2023-04-16T14:34:55;3.28;;;1.85;;
75021;SDS011;63583;49.976;20.182;2023-04-16T14:37:21;3.60;;;1.95;;
75021;SDS011;63583;49.976;20.182;2023-04-16T14:39:47;3.58;;;1.65;;
75021;SDS011;63583;49.976;20.182;2023-04-16T14:42:13;2.22;;;1.25;;
75021;SDS011;63583;49.976;20.182;2023-04-16T14:44:38;4.05;;;1.92;;
75021;SDS011;63583;49.976;20.182;2023-04-16T14:47:04;3.10;;;1.80;;
75021;SDS011;63583;49.976;20.182;2023-04-16T14:49:30;3.05;;;1.63;;
75021;SDS011;63583;49.976;20.182;2023-04-16T14:51:56;2.78;;;1.45;;
75021;SDS011;63583;49.976;20.182;2023-04-16T14:54:21;2.78;;;1.90;;
75021;SDS011;63583;49.976;20.182;2023-04-16T14:56:48;3.55;;;1.85;;